Ulm, Montana
Current Conditions -  °F | °C
As of 12:53 PM on Monday 26 Jan 2015 (Local Time) from KGTF Reporting Station
Clear Clear  
Wind Chill: 67°   Ceiling: Unl
Heat Index: 67°   Visibility: 10mi
Dew Point: 28°   Wind: 21mph
Humidity: 23%   Direction: 220°SW
Pressure: 29.99"   Gusts: 30mph
Location:  47.43°N, 111.51°W
Report Text: KGTF 261953Z 22018G26KT 10SM CLR 19/M02 A2999 RMK AO2 PK WND 23026/1948 SLP139 T01941022
Loading
Personal Weather Stations






























Interactive Weather Map New forecast layout! Learn more

10-Day Weather Forecast

Advertisements
Track Severe Weather on mobile